Time;durP1;ratioP1;P1;durP2;ratioP2;P2;SDS_P1;SDS_P2;PMS_P1;PMS_P2;Temp;Humidity;BMP_temperature;BMP_pressure;BME280_temperature;BME280_humidity;BME280_pressure;Samples;Min_cycle;Max_cycle;Signal;HPM_P1;HPM_P2
2023/08/12 00:00:22;;;;;;;14.05;8.57;;;;;;;29.37;52.63;101526.22;5032238;28;20390;-64
2023/08/12 00:02:48;;;;;;;11.98;7.95;;;;;;;29.41;52.00;101519.16;5032458;28;20022;-64
2023/08/12 00:05:13;;;;;;;11.00;7.95;;;;;;;29.43;52.67;101524.44;5032306;28;20060;-65
2023/08/12 00:07:42;;;;;;;13.60;8.73;;;;;;;29.44;52.48;101521.44;5032008;28;20029;-65
2023/08/12 00:10:09;;;;;;;13.07;8.73;;;;;;;29.45;52.09;101520.34;5033579;28;20032;-64
2023/08/12 00:12:36;;;;;;;13.27;9.52;;;;;;;29.47;52.55;101519.28;5015518;28;20052;-64
2023/08/12 00:15:02;;;;;;;16.00;8.77;;;;;;;29.51;52.51;101521.31;5032004;28;20076;-64
2023/08/12 00:17:28;;;;;;;13.07;8.55;;;;;;;29.52;52.03;101517.50;5032031;28;20444;-64
2023/08/12 00:19:53;;;;;;;15.25;8.88;;;;;;;29.53;52.60;101524.72;5015153;28;20041;-65
2023/08/12 00:22:19;;;;;;;15.43;8.38;;;;;;;29.52;52.51;101511.97;5033092;28;20037;-65
2023/08/12 00:24:44;;;;;;;13.63;8.60;;;;;;;29.52;52.53;101511.13;5031805;28;20101;-64
2023/08/12 00:27:10;;;;;;;18.00;8.60;;;;;;;29.50;51.98;101496.72;5015564;28;20389;-65
2023/08/12 00:29:36;;;;;;;14.35;9.13;;;;;;;29.47;52.06;101497.19;5032975;28;20037;-65
2023/08/12 00:32:01;;;;;;;12.50;8.45;;;;;;;29.48;52.47;101496.97;5031549;28;20030;-65
2023/08/12 00:34:27;;;;;;;14.18;8.35;;;;;;;29.45;52.46;101495.50;5031523;28;20090;-65
2023/08/12 00:36:53;;;;;;;12.63;8.15;;;;;;;29.43;51.79;101497.66;5032734;28;20037;-64
2023/08/12 00:39:18;;;;;;;12.43;8.35;;;;;;;29.45;52.21;101498.25;5032883;28;20507;-64
2023/08/12 00:41:43;;;;;;;12.05;8.18;;;;;;;29.44;52.53;101498.50;5031707;28;20034;-66
2023/08/12 00:44:09;;;;;;;12.10;8.07;;;;;;;29.43;52.20;101494.91;5031402;28;20524;-65
2023/08/12 00:46:35;;;;;;;13.98;8.38;;;;;;;29.43;51.80;101494.91;5031608;28;20121;-64
2023/08/12 00:49:00;;;;;;;11.77;8.07;;;;;;;29.40;52.62;101487.09;5031469;28;20034;-64
2023/08/12 00:51:26;;;;;;;18.00;9.30;;;;;;;29.40;51.87;101476.03;5031600;28;20034;-64
2023/08/12 00:53:52;;;;;;;15.32;8.13;;;;;;;29.38;52.21;101472.69;5014865;28;20496;-62
2023/08/12 00:56:18;;;;;;;15.55;8.63;;;;;;;29.38;52.19;101467.16;5032739;28;20034;-61
2023/08/12 00:58:43;;;;;;;16.67;8.80;;;;;;;29.36;52.49;101469.34;5032521;28;20036;-62
2023/08/12 01:01:10;;;;;;;13.93;7.60;;;;;;;29.35;52.19;101455.75;5031314;28;20041;-61
2023/08/12 01:03:35;;;;;;;13.77;8.52;;;;;;;29.32;52.37;101457.06;5031475;28;20038;-61
2023/08/12 01:06:01;;;;;;;13.07;8.75;;;;;;;29.30;52.12;101452.88;5031949;28;20051;-62
2023/08/12 01:08:30;;;;;;;11.98;7.45;;;;;;;29.31;51.91;101458.13;5031830;28;20083;-61
2023/08/12 01:11:01;;;;;;;13.40;8.32;;;;;;;29.30;52.14;101452.88;5032927;28;20092;-62
2023/08/12 01:13:46;;;;;;;13.77;8.13;;;;;;;29.29;52.58;101454.78;5031427;28;20038;-62
2023/08/12 01:16:13;;;;;;;12.13;7.30;;;;;;;29.28;52.05;101449.50;5031297;28;20052;-62
2023/08/12 01:18:39;;;;;;;11.15;7.00;;;;;;;29.28;51.77;101450.34;5031432;28;20030;-62
2023/08/12 01:21:07;;;;;;;13.30;7.97;;;;;;;29.27;51.83;101458.84;5014827;28;20049;-62
2023/08/12 01:23:33;;;;;;;12.18;8.38;;;;;;;29.23;52.05;101450.19;5015001;28;20041;-62
2023/08/12 01:25:58;;;;;;;16.27;7.20;;;;;;;29.23;52.54;101446.63;5032510;28;20025;-62
2023/08/12 01:28:24;;;;;;;12.30;7.35;;;;;;;29.18;52.43;101444.50;5032833;28;20083;-62
2023/08/12 01:31:12;;;;;;;14.85;7.70;;;;;;;29.19;52.97;101446.22;5032294;28;20033;-62
2023/08/12 01:33:46;;;;;;;13.00;7.57;;;;;;;29.18;51.91;101450.03;5032363;28;20091;-62
2023/08/12 01:36:17;;;;;;;13.75;7.40;;;;;;;29.13;52.59;101441.63;5031260;28;20382;-62
2023/08/12 01:38:43;;;;;;;14.60;7.25;;;;;;;29.16;52.04;101441.16;5032254;28;20034;-62
2023/08/12 01:41:10;;;;;;;10.23;7.25;;;;;;;29.15;52.07;101439.47;5031063;28;20037;-62
2023/08/12 01:43:35;;;;;;;12.23;8.27;;;;;;;29.12;52.03;101423.38;5030663;28;20040;-62
2023/08/12 01:46:01;;;;;;;12.55;7.60;;;;;;;29.12;52.26;101431.66;5030575;28;20025;-63
2023/08/12 01:48:26;;;;;;;14.73;7.68;;;;;;;29.13;52.47;101425.06;5014205;28;20432;-62
2023/08/12 01:50:52;;;;;;;15.52;8.27;;;;;;;29.11;52.74;101416.19;5030842;28;20048;-62
2023/08/12 01:53:17;;;;;;;18.02;8.05;;;;;;;29.11;52.64;101415.34;5031833;28;20469;-62
2023/08/12 01:55:43;;;;;;;14.52;7.93;;;;;;;29.09;52.02;101418.31;5030807;28;20076;-62
2023/08/12 01:58:09;;;;;;;13.98;6.90;;;;;;;29.05;52.58;101413.53;5017921;28;20392;-61
2023/08/12 02:00:34;;;;;;;14.73;7.03;;;;;;;29.05;52.70;101408.84;5034708;28;20583;-62
2023/08/12 02:02:59;;;;;;;13.10;8.02;;;;;;;29.03;52.29;101413.78;5035875;28;20060;-62
2023/08/12 02:05:25;;;;;;;10.10;7.18;;;;;;;29.01;52.12;101418.69;5018036;28;20083;-64
2023/08/12 02:07:51;;;;;;;10.60;7.25;;;;;;;28.98;51.91;101410.88;5034181;28;20031;-65
2023/08/12 02:10:16;;;;;;;15.45;7.93;;;;;;;28.97;52.08;101411.13;5035724;28;20373;-65
2023/08/12 02:12:41;;;;;;;12.57;7.55;;;;;;;28.96;52.50;101415.78;5033981;28;20025;-65
2023/08/12 02:15:07;;;;;;;11.90;7.45;;;;;;;28.96;51.93;101417.69;5034208;28;20057;-65
2023/08/12 02:17:32;;;;;;;11.63;6.85;;;;;;;28.93;52.18;101407.97;5035583;28;20024;-65
2023/08/12 02:19:58;;;;;;;9.18;6.95;;;;;;;28.92;52.65;101411.84;5033846;28;20075;-65
2023/08/12 02:22:23;;;;;;;12.88;7.70;;;;;;;28.91;52.24;101392.75;5033972;28;20033;-65
2023/08/12 02:24:48;;;;;;;14.70;7.57;;;;;;;28.89;52.83;101390.22;5035408;28;20473;-64
2023/08/12 02:27:14;;;;;;;10.55;7.43;;;;;;;28.88;52.39;101383.03;5034149;28;20021;-64
2023/08/12 02:29:39;;;;;;;12.52;6.70;;;;;;;28.84;52.87;101379.03;5033869;28;20072;-64
2023/08/12 02:32:05;;;;;;;13.48;7.57;;;;;;;28.85;52.01;101391.75;5034333;28;20477;-65
2023/08/12 02:34:30;;;;;;;16.55;7.93;;;;;;;28.82;52.62;101392.22;5033786;28;20048;-64
2023/08/12 02:36:55;;;;;;;11.60;7.82;;;;;;;28.78;52.52;101388.28;5035571;28;20025;-66
2023/08/12 02:39:21;;;;;;;14.52;7.85;;;;;;;28.79;52.76;101385.28;5033969;28;20473;-65
2023/08/12 02:41:46;;;;;;;11.35;7.25;;;;;;;28.76;52.73;101382.97;5034002;28;20500;-65
2023/08/12 02:44:11;;;;;;;10.07;5.93;;;;;;;28.74;52.49;101376.03;5034021;28;20071;-65
2023/08/12 02:46:37;;;;;;;13.63;6.30;;;;;;;28.73;52.63;101377.09;5034840;28;20061;-65
2023/08/12 02:49:02;;;;;;;11.30;7.03;;;;;;;28.69;52.37;101373.97;5033470;28;20034;-66
2023/08/12 02:51:27;;;;;;;12.27;6.78;;;;;;;28.67;52.46;101373.34;5033479;28;20021;-65
2023/08/12 02:53:53;;;;;;;12.30;7.75;;;;;;;28.64;53.17;101371.09;5034761;28;20025;-64
2023/08/12 02:56:19;;;;;;;14.80;8.00;;;;;;;28.62;52.23;101366.81;5033408;28;20061;-65
2023/08/12 02:58:44;;;;;;;13.55;6.93;;;;;;;28.62;52.70;101366.81;5034610;28;20048;-65
2023/08/12 03:01:09;;;;;;;11.35;7.22;;;;;;;28.64;52.21;101361.97;5034854;28;20052;-65
2023/08/12 03:03:35;;;;;;;14.18;8.00;;;;;;;28.61;52.21;101357.75;5033347;28;20109;-65
2023/08/12 03:06:00;;;;;;;12.38;7.72;;;;;;;28.60;52.17;101346.94;5034604;28;20022;-65
2023/08/12 03:08:26;;;;;;;13.18;7.38;;;;;;;28.59;52.73;101339.72;5033100;28;20059;-65
2023/08/12 03:11:01;;;;;;;12.75;6.70;;;;;;;28.58;52.86;101338.06;5034692;28;20030;-64
2023/08/12 03:13:26;;;;;;;9.40;6.72;;;;;;;28.57;53.13;101352.91;5034528;28;20091;-62
2023/08/12 03:15:52;;;;;;;12.80;7.78;;;;;;;28.54;53.08;101347.88;5016889;28;20033;-65
2023/08/12 03:18:17;;;;;;;13.85;6.13;;;;;;;28.52;52.88;101345.34;5034485;28;20034;-65
2023/08/12 03:20:43;;;;;;;11.40;6.78;;;;;;;28.51;53.21;101348.31;5033986;28;20444;-65
2023/08/12 03:23:08;;;;;;;13.05;7.45;;;;;;;28.51;52.86;101342.81;5034275;28;20037;-65
2023/08/12 03:25:33;;;;;;;15.38;7.95;;;;;;;28.50;52.57;101343.91;5034400;28;20033;-65
2023/08/12 03:27:59;;;;;;;11.32;6.35;;;;;;;28.50;52.38;101349.41;5034022;28;20648;-64
2023/08/12 03:30:24;;;;;;;12.05;7.60;;;;;;;28.48;52.43;101346.88;5033174;28;20040;-65
2023/08/12 03:32:51;;;;;;;9.43;6.93;;;;;;;28.49;53.41;101347.72;5032867;28;20033;-65
2023/08/12 03:35:17;;;;;;;14.68;6.55;;;;;;;28.48;52.73;101337.75;5033095;28;20029;-66
2023/08/12 03:37:42;;;;;;;9.32;6.53;;;;;;;28.47;52.63;101330.59;5033408;28;20045;-65
2023/08/12 03:40:08;;;;;;;10.43;6.72;;;;;;;28.48;52.51;101332.25;5034871;28;20025;-65
2023/08/12 03:42:33;;;;;;;12.82;6.45;;;;;;;28.45;53.10;101317.03;5033517;28;20481;-65
2023/08/12 03:44:59;;;;;;;13.85;6.97;;;;;;;28.47;52.50;101314.06;5034650;28;20041;-65
2023/08/12 03:47:24;;;;;;;14.50;6.90;;;;;;;28.48;53.08;101316.56;5032544;28;20049;-65
2023/08/12 03:49:50;;;;;;;11.45;7.80;;;;;;;28.49;53.69;101311.88;5033664;28;20032;-65
2023/08/12 03:52:15;;;;;;;13.18;8.52;;;;;;;28.47;53.06;101303.03;5015678;28;20029;-65
2023/08/12 03:54:41;;;;;;;12.48;8.02;;;;;;;28.48;52.83;101302.78;5032271;28;20036;-66
2023/08/12 03:57:06;;;;;;;12.73;8.07;;;;;;;28.48;53.32;101299.16;5015676;28;20040;-65
2023/08/12 03:59:31;;;;;;;11.35;7.43;;;;;;;28.49;53.17;101300.88;5032102;28;20045;-65
2023/08/12 04:01:57;;;;;;;15.73;7.35;;;;;;;28.48;52.69;101288.97;5033498;28;20025;-65
2023/08/12 04:04:23;;;;;;;14.52;7.03;;;;;;;28.47;52.85;101290.09;5031999;28;20041;-65
2023/08/12 04:06:51;;;;;;;13.90;8.15;;;;;;;28.47;53.17;101292.00;5032041;28;20386;-65
2023/08/12 04:09:17;;;;;;;12.13;7.95;;;;;;;28.48;53.21;101290.91;5033477;28;20030;-64
2023/08/12 04:11:42;;;;;;;19.75;8.45;;;;;;;28.47;53.50;101297.50;5032217;28;20022;-65
2023/08/12 04:14:08;;;;;;;17.63;8.23;;;;;;;28.47;52.86;101295.59;5033362;28;20493;-64
2023/08/12 04:16:33;;;;;;;13.18;8.45;;;;;;;28.46;53.77;101290.31;5031825;28;20072;-65
2023/08/12 04:18:58;;;;;;;15.80;8.40;;;;;;;28.46;53.24;101290.31;5031606;28;20029;-65
2023/08/12 04:21:24;;;;;;;18.52;8.55;;;;;;;28.46;53.66;101287.53;5032838;28;20049;-64
2023/08/12 04:23:49;;;;;;;15.05;8.65;;;;;;;28.42;54.13;101281.66;5032937;28;20440;-66
2023/08/12 04:26:14;;;;;;;15.20;8.40;;;;;;;28.37;53.68;101284.28;5032955;28;20030;-65
2023/08/12 04:28:40;;;;;;;11.60;7.72;;;;;;;28.31;53.24;101282.47;5033183;28;20061;-65
2023/08/12 04:31:07;;;;;;;14.10;8.32;;;;;;;28.28;53.96;101278.25;5032859;28;20033;-64
2023/08/12 04:33:33;;;;;;;12.40;7.65;;;;;;;28.25;53.61;101273.22;5031929;28;20091;-65
2023/08/12 04:35:58;;;;;;;12.05;7.63;;;;;;;28.24;54.30;101263.28;5031825;28;20025;-65
2023/08/12 04:38:24;;;;;;;10.02;7.18;;;;;;;28.27;54.21;101273.00;5031544;28;20433;-65
2023/08/12 04:40:49;;;;;;;13.02;7.05;;;;;;;28.24;54.21;101257.78;5015086;28;20099;-65
2023/08/12 04:43:14;;;;;;;13.98;7.38;;;;;;;28.25;54.17;101256.69;5032751;28;20069;-65
2023/08/12 04:45:40;;;;;;;13.25;7.22;;;;;;;28.26;54.60;101263.88;5032976;28;20106;-67
2023/08/12 04:48:08;;;;;;;14.23;7.25;;;;;;;28.27;54.07;101265.56;5031745;28;20550;-66
2023/08/12 04:50:34;;;;;;;15.40;6.72;;;;;;;28.28;54.25;101261.72;5031696;28;20409;-65
2023/08/12 04:53:00;;;;;;;15.77;7.00;;;;;;;28.29;54.42;101254.28;5031590;28;20045;-65
2023/08/12 04:55:25;;;;;;;12.23;6.70;;;;;;;28.27;53.45;101259.22;5032714;28;20029;-65
2023/08/12 04:57:51;;;;;;;13.70;6.47;;;;;;;28.24;53.87;101260.53;5031423;28;20022;-65
2023/08/12 05:00:17;;;;;;;11.40;6.70;;;;;;;28.23;53.62;101264.34;5031478;28;20434;-65
2023/08/12 05:02:43;;;;;;;11.35;6.65;;;;;;;28.19;53.54;101268.66;5032746;28;20026;-67
2023/08/12 05:05:08;;;;;;;12.38;6.10;;;;;;;28.13;53.74;101274.25;5031376;28;20026;-65
2023/08/12 05:07:33;;;;;;;8.73;5.20;;;;;;;28.04;54.63;101270.97;5031685;28;20117;-68
2023/08/12 05:09:59;;;;;;;12.82;5.10;;;;;;;27.87;55.06;101275.41;5032767;28;20022;-71
2023/08/12 05:12:24;;;;;;;4.97;4.35;;;;;;;27.70;54.74;101269.69;5031081;28;20049;-67
2023/08/12 05:14:50;;;;;;;10.98;4.35;;;;;;;27.56;54.57;101278.34;5032561;28;20463;-68
2023/08/12 05:17:15;;;;;;;8.18;4.13;;;;;;;27.43;55.15;101275.75;5031260;28;20084;-70
2023/08/12 05:19:40;;;;;;;7.53;4.28;;;;;;;27.32;54.67;101279.22;5031046;28;20042;-70
2023/08/12 05:22:06;;;;;;;6.47;3.60;;;;;;;27.17;55.16;101279.59;5031042;28;20049;-71
2023/08/12 05:24:31;;;;;;;4.20;3.00;;;;;;;27.09;55.26;101277.97;5031017;28;20038;-71
2023/08/12 05:26:57;;;;;;;4.57;2.70;;;;;;;27.02;55.85;101287.38;5031153;28;20504;-71
2023/08/12 05:29:22;;;;;;;4.25;2.72;;;;;;;26.97;56.06;101273.44;5031138;28;20067;-70
2023/08/12 05:31:48;;;;;;;4.38;2.60;;;;;;;26.92;56.18;101265.03;5032655;28;20168;-70
2023/08/12 05:34:13;;;;;;;4.15;2.92;;;;;;;26.91;55.24;101264.16;5035996;28;20412;-62
2023/08/12 05:36:38;;;;;;;5.90;2.55;;;;;;;26.90;55.66;101269.91;5036065;28;20030;-62
2023/08/12 05:39:04;;;;;;;5.10;2.85;;;;;;;26.87;56.13;101268.47;5034855;28;20029;-63
2023/08/12 05:41:29;;;;;;;5.30;2.22;;;;;;;26.87;56.29;101273.09;5018451;28;20029;-62
2023/08/12 05:43:54;;;;;;;5.32;2.42;;;;;;;26.85;56.54;101258.75;5034859;28;20029;-62
2023/08/12 05:46:20;;;;;;;3.53;2.50;;;;;;;26.88;55.50;101267.41;5034782;28;20082;-62
2023/08/12 05:48:45;;;;;;;4.38;2.97;;;;;;;26.88;55.88;101264.66;5035979;28;20124;-63
2023/08/12 05:51:11;;;;;;;4.80;2.97;;;;;;;26.88;56.05;101253.66;5035982;28;20038;-62
2023/08/12 05:53:37;;;;;;;3.25;2.38;;;;;;;26.85;56.23;101254.09;5035963;28;20505;-63
2023/08/12 05:56:02;;;;;;;2.70;1.88;;;;;;;26.84;56.13;101263.41;5034580;28;20033;-63
2023/08/12 05:58:28;;;;;;;3.30;2.03;;;;;;;26.82;56.36;101260.03;5034663;28;20041;-62
2023/08/12 06:00:53;;;;;;;2.25;1.63;;;;;;;26.84;56.08;101266.16;5035781;28;20034;-62
2023/08/12 06:03:18;;;;;;;3.17;1.60;;;;;;;26.84;56.47;101260.66;5035674;28;20099;-63
2023/08/12 06:05:46;;;;;;;2.55;1.58;;;;;;;26.82;56.09;101264.69;5035529;28;20037;-62
2023/08/12 06:08:11;;;;;;;5.35;1.42;;;;;;;26.82;56.24;101251.78;5017923;28;20496;-62
2023/08/12 06:10:37;;;;;;;4.57;1.60;;;;;;;26.87;55.68;101246.47;5034457;28;20093;-62
2023/08/12 06:13:02;;;;;;;1.70;1.27;;;;;;;26.90;55.91;101239.66;5034391;28;20455;-62
2023/08/12 06:15:28;;;;;;;3.58;1.23;;;;;;;26.94;55.24;101224.41;5035514;28;20408;-62
2023/08/12 06:17:53;;;;;;;2.25;1.40;;;;;;;27.04;56.19;101198.06;5034307;28;20053;-62
2023/08/12 06:20:18;;;;;;;1.98;1.63;;;;;;;27.14;56.06;101212.09;5033932;28;20527;-62
2023/08/12 06:22:44;;;;;;;3.15;1.80;;;;;;;27.21;55.27;101213.94;5035115;28;20033;-62
2023/08/12 06:25:09;;;;;;;3.63;1.52;;;;;;;27.26;55.69;101223.19;5034026;28;20091;-62
2023/08/12 06:27:34;;;;;;;1.70;1.30;;;;;;;27.31;54.53;101208.75;5034086;28;20563;-62
2023/08/12 06:30:00;;;;;;;1.85;1.10;;;;;;;27.37;54.81;101218.84;5035305;28;20038;-62
2023/08/12 06:32:25;;;;;;;2.45;0.98;;;;;;;27.43;55.15;101224.31;5035179;28;20091;-62
2023/08/12 06:34:50;;;;;;;1.65;1.05;;;;;;;27.46;54.89;101223.00;5035111;28;20215;-62
2023/08/12 06:37:16;;;;;;;1.23;1.13;;;;;;;27.50;55.37;101227.00;5033742;28;20038;-62
2023/08/12 06:39:41;;;;;;;5.43;1.10;;;;;;;27.54;55.00;101230.94;5035106;28;20496;-62
2023/08/12 06:42:06;;;;;;;3.92;0.93;;;;;;;27.57;55.03;101236.84;5017691;28;20095;-63
2023/08/12 06:44:32;;;;;;;1.65;1.30;;;;;;;27.61;54.28;101242.72;5035125;28;20105;-64
2023/08/12 06:46:57;;;;;;;2.92;1.17;;;;;;;27.60;54.86;101230.03;5033688;28;20044;-66
2023/08/12 06:49:23;;;;;;;1.52;1.23;;;;;;;27.64;55.14;101236.72;5034907;28;20061;-65
2023/08/12 06:51:48;;;;;;;2.40;0.90;;;;;;;27.64;54.96;101232.06;5034867;28;20034;-65
2023/08/12 06:54:14;;;;;;;0.85;0.60;;;;;;;27.67;54.69;101239.03;5033418;28;20037;-65
2023/08/12 06:56:39;;;;;;;1.23;0.95;;;;;;;27.66;54.44;101229.94;5035130;28;20057;-65
2023/08/12 06:59:04;;;;;;;3.63;1.10;;;;;;;27.67;54.09;101236.28;5034560;28;20071;-65
2023/08/12 07:01:30;;;;;;;2.33;0.90;;;;;;;27.67;54.46;101228.00;5033460;28;20029;-65
2023/08/12 07:03:55;;;;;;;1.30;0.90;;;;;;;27.70;54.19;101235.81;5034382;28;20033;-65
2023/08/12 07:06:22;;;;;;;1.65;1.00;;;;;;;27.70;53.81;101233.06;5034384;28;20041;-65
2023/08/12 07:08:47;;;;;;;1.58;0.70;;;;;;;27.69;54.63;101231.41;5016646;28;20041;-66
2023/08/12 07:11:12;;;;;;;2.10;0.82;;;;;;;27.72;54.13;101236.44;5033270;28;20112;-65
2023/08/12 07:13:38;;;;;;;1.25;0.98;;;;;;;27.74;54.40;101226.03;5032963;28;20038;-65
2023/08/12 07:16:03;;;;;;;2.30;0.77;;;;;;;27.77;53.57;101239.34;5034430;28;20029;-65
2023/08/12 07:18:29;;;;;;;1.25;0.77;;;;;;;27.80;54.69;101225.09;5034396;28;20032;-65
2023/08/12 07:20:54;;;;;;;2.53;0.93;;;;;;;27.75;54.49;101220.28;5034265;28;20053;-65
2023/08/12 07:23:20;;;;;;;2.45;1.02;;;;;;;27.83;54.25;101232.91;5033045;28;20030;-65
2023/08/12 07:25:46;;;;;;;2.17;0.75;;;;;;;27.89;53.97;101237.47;5034286;28;20516;-65
2023/08/12 07:28:12;;;;;;;3.13;1.05;;;;;;;27.93;53.89;101229.56;5016514;28;20429;-65
2023/08/12 07:30:37;;;;;;;3.38;0.90;;;;;;;27.97;54.07;101223.38;5032947;28;20044;-65
2023/08/12 07:33:04;;;;;;;4.07;0.90;;;;;;;28.09;54.54;101216.03;5033915;28;20037;-64
2023/08/12 07:35:29;;;;;;;1.65;1.10;;;;;;;28.17;53.99;101217.59;5032564;28;20044;-65
2023/08/12 07:37:55;;;;;;;3.22;1.00;;;;;;;28.26;54.17;101217.03;5033764;28;20037;-66
2023/08/12 07:40:20;;;;;;;3.05;1.10;;;;;;;28.35;53.29;101216.69;5033889;28;20146;-65
2023/08/12 07:42:45;;;;;;;3.08;1.52;;;;;;;28.40;54.38;101216.81;5032627;28;20120;-65
2023/08/12 07:45:11;;;;;;;0.82;0.73;;;;;;;28.40;53.90;101220.41;5015980;28;20040;-65
2023/08/12 07:47:36;;;;;;;1.45;0.80;;;;;;;28.43;54.27;101214.44;5033887;28;20083;-66
2023/08/12 07:50:02;;;;;;;1.73;0.90;;;;;;;28.45;54.03;101194.91;5032535;28;20407;-65
2023/08/12 07:52:27;;;;;;;1.17;0.90;;;;;;;28.46;53.35;101207.59;5032381;28;20033;-65
2023/08/12 07:54:52;;;;;;;1.55;1.25;;;;;;;28.46;53.32;101218.63;5031774;28;20465;-65
2023/08/12 07:57:20;;;;;;;1.00;0.85;;;;;;;28.48;53.13;101219.22;5033523;28;20037;-64
2023/08/12 07:59:45;;;;;;;1.15;1.05;;;;;;;28.49;53.37;101219.00;5032183;28;20560;-65
2023/08/12 08:02:11;;;;;;;0.73;0.73;;;;;;;28.52;53.32;101209.41;5033500;28;20509;-65
2023/08/12 08:04:37;;;;;;;0.95;0.70;;;;;;;28.50;53.30;101215.19;5032223;28;20029;-65
2023/08/12 08:07:03;;;;;;;1.45;1.35;;;;;;;28.49;54.10;101229.19;5033450;28;20409;-65
2023/08/12 08:09:28;;;;;;;1.15;1.05;;;;;;;28.48;53.74;101233.84;5033463;28;20065;-66
2023/08/12 08:11:53;;;;;;;1.25;1.15;;;;;;;28.48;54.17;101227.50;5031925;28;20055;-66
2023/08/12 08:14:19;;;;;;;1.08;0.98;;;;;;;28.51;53.96;101227.00;5031924;28;20041;-65
2023/08/12 08:16:45;;;;;;;1.20;0.70;;;;;;;28.61;52.78;101227.28;5033115;28;20042;-66
2023/08/12 08:19:10;;;;;;;0.77;0.52;;;;;;;28.68;52.69;101222.53;5033429;28;20030;-65
2023/08/12 08:21:36;;;;;;;2.85;1.13;;;;;;;28.78;52.94;101222.78;5031477;28;20053;-65
2023/08/12 08:24:01;;;;;;;2.70;0.90;;;;;;;28.87;52.47;101222.16;5031879;28;20075;-65
2023/08/12 08:26:27;;;;;;;2.72;1.02;;;;;;;28.94;52.63;101230.34;5033339;28;20060;-65
2023/08/12 08:28:53;;;;;;;1.65;1.15;;;;;;;28.96;53.25;101235.59;5031904;28;20035;-65
2023/08/12 08:31:19;;;;;;;2.63;1.92;;;;;;;28.96;53.57;101236.44;5033303;28;20091;-66
2023/08/12 08:33:44;;;;;;;1.08;0.93;;;;;;;28.94;53.56;101238.63;5031701;28;20033;-66
2023/08/12 08:36:10;;;;;;;5.38;1.40;;;;;;;28.92;53.60;101246.31;5033073;28;20030;-65
2023/08/12 08:38:36;;;;;;;1.10;1.00;;;;;;;28.89;52.84;101242.06;5032885;28;20033;-65
2023/08/12 08:41:03;;;;;;;1.55;1.10;;;;;;;28.92;53.45;101243.53;5031659;28;20461;-65
2023/08/12 08:43:29;;;;;;;0.90;0.70;;;;;;;28.97;53.24;101246.41;5031520;28;20029;-65
2023/08/12 08:45:55;;;;;;;4.95;0.93;;;;;;;28.98;53.15;101250.84;5032927;28;20025;-66
2023/08/12 08:48:21;;;;;;;0.88;0.82;;;;;;;28.98;53.13;101245.31;5031581;28;20436;-65
2023/08/12 08:50:48;;;;;;;1.35;0.60;;;;;;;29.09;52.36;101258.28;5031939;28;20029;-66
2023/08/12 08:53:14;;;;;;;1.95;1.08;;;;;;;29.22;52.35;101258.06;5014886;28;20075;-66
2023/08/12 08:55:41;;;;;;;1.83;0.82;;;;;;;29.29;52.73;101258.78;5031528;28;20033;-65
2023/08/12 08:58:06;;;;;;;0.88;0.82;;;;;;;29.25;52.28;101263.13;5031344;28;20039;-65
2023/08/12 09:00:31;;;;;;;0.73;0.73;;;;;;;29.11;53.00;101261.66;5031336;28;20117;-65
2023/08/12 09:02:58;;;;;;;2.85;0.80;;;;;;;28.94;53.40;101257.94;5031273;28;20029;-65
2023/08/12 09:05:23;;;;;;;0.93;0.80;;;;;;;28.86;53.46;101263.81;5032392;28;20037;-67
2023/08/12 09:07:49;;;;;;;1.20;0.80;;;;;;;28.85;53.50;101256.59;5035643;28;20038;-70
2023/08/12 09:10:17;;;;;;;0.40;0.40;;;;;;;28.78;53.95;101255.88;5035587;28;20137;-71
2023/08/12 09:12:43;;;;;;;1.30;0.80;;;;;;;28.70;54.13;101265.31;5035364;28;20099;-70
2023/08/12 09:15:09;;;;;;;0.93;0.57;;;;;;;28.61;54.03;101260.38;5035323;28;20037;-70
2023/08/12 09:17:34;;;;;;;0.95;0.95;;;;;;;28.54;54.31;101259.63;5035462;28;20087;-70
2023/08/12 09:20:00;;;;;;;0.65;0.50;;;;;;;28.50;54.73;101261.19;5035476;28;20034;-71
2023/08/12 09:22:25;;;;;;;0.52;0.50;;;;;;;28.44;54.59;101264.91;5036483;28;20049;-71
2023/08/12 09:24:57;;;;;;;0.35;0.30;;;;;;;28.41;54.98;101259.84;5018706;28;20029;-71
2023/08/12 09:27:23;;;;;;;0.40;0.40;;;;;;;28.44;55.14;101265.75;5018600;28;20397;-70
2023/08/12 09:29:49;;;;;;;0.45;0.43;;;;;;;28.43;54.47;101257.69;5036339;28;20033;-71
2023/08/12 09:32:19;;;;;;;1.00;0.70;;;;;;;28.48;54.77;101266.09;5035201;28;20041;-70
2023/08/12 09:34:51;;;;;;;1.42;0.30;;;;;;;28.55;55.04;101266.84;5036140;28;20025;-69
2023/08/12 09:37:17;;;;;;;0.33;0.33;;;;;;;28.64;55.11;101265.47;5035074;28;20052;-68
2023/08/12 09:39:42;;;;;;;0.20;0.20;;;;;;;28.65;54.37;101267.97;5036794;28;20071;-68
2023/08/12 09:42:08;;;;;;;0.30;0.20;;;;;;;28.63;55.28;101263.75;5036754;28;20029;-67
2023/08/12 09:44:40;;;;;;;1.98;0.20;;;;;;;28.69;55.39;101262.81;5034969;28;20095;-66
2023/08/12 09:47:06;;;;;;;0.30;0.30;;;;;;;28.78;54.31;101261.41;5034961;28;20108;-65
2023/08/12 09:49:31;;;;;;;0.20;0.20;;;;;;;28.88;54.18;101261.63;5018353;28;20029;-66
2023/08/12 09:51:57;;;;;;;0.25;0.17;;;;;;;28.91;54.79;101266.69;5036353;28;20025;-65
2023/08/12 09:54:26;;;;;;;0.28;0.20;;;;;;;28.97;54.53;101260.22;5034785;28;20547;-65
2023/08/12 09:56:56;;;;;;;0.35;0.30;;;;;;;29.11;53.61;101261.66;5034935;28;20091;-65
2023/08/12 09:59:22;;;;;;;0.20;0.20;;;;;;;29.24;54.15;101260.59;5018357;28;20085;-65
2023/08/12 10:01:50;;;;;;;0.10;0.10;;;;;;;29.43;54.17;101257.44;5035987;28;20036;-67
2023/08/12 10:04:18;;;;;;;0.60;0.40;;;;;;;29.57;53.82;101258.00;5035345;28;20037;-65
2023/08/12 10:06:44;;;;;;;1.88;0.30;;;;;;;29.64;53.81;101260.66;5035048;28;20481;-65
2023/08/12 10:09:11;;;;;;;1.83;0.40;;;;;;;29.71;54.01;101261.31;5035402;28;20077;-66
2023/08/12 10:11:37;;;;;;;0.30;0.20;;;;;;;29.84;53.04;101261.09;5035926;28;20034;-66
2023/08/12 10:14:03;;;;;;;0.13;0.13;;;;;;;30.01;52.83;101248.19;5034511;28;20053;-65
2023/08/12 10:16:29;;;;;;;0.85;0.40;;;;;;;30.18;52.55;101246.28;5033946;28;20497;-65
2023/08/12 10:18:56;;;;;;;1.95;0.20;;;;;;;30.30;52.19;101247.06;5033767;28;20037;-66
2023/08/12 10:21:22;;;;;;;0.20;0.20;;;;;;;30.40;52.40;101255.56;5034157;28;20382;-65
2023/08/12 10:23:48;;;;;;;0.52;0.45;;;;;;;30.39;52.56;101253.91;5033887;28;20049;-65
2023/08/12 10:26:14;;;;;;;0.20;0.20;;;;;;;30.57;51.99;101250.03;5034255;28;20076;-65
2023/08/12 10:28:39;;;;;;;0.20;0.20;;;;;;;30.66;51.88;101254.09;5033965;28;20025;-65
2023/08/12 10:31:05;;;;;;;0.30;0.30;;;;;;;30.75;51.33;101248.97;5033762;28;20029;-65
2023/08/12 10:33:36;;;;;;;0.75;0.43;;;;;;;30.81;51.47;101256.28;5033909;28;20036;-65
2023/08/12 10:36:01;;;;;;;0.35;0.22;;;;;;;30.84;51.47;101250.22;5033760;28;20091;-65
2023/08/12 10:38:27;;;;;;;0.47;0.20;;;;;;;30.71;51.84;101251.38;5017512;28;20034;-65
2023/08/12 10:40:52;;;;;;;0.60;0.30;;;;;;;30.50;51.88;101255.75;5035426;28;20033;-64
2023/08/12 10:43:17;;;;;;;1.08;0.20;;;;;;;30.21;52.67;101262.38;5017500;28;20095;-69
2023/08/12 10:45:48;;;;;;;0.10;0.10;;;;;;;29.96;52.63;101253.59;5034216;28;20026;-68
2023/08/12 10:48:18;;;;;;;0.20;0.20;;;;;;;29.75;52.88;101257.00;5033850;28;20037;-70
2023/08/12 10:50:46;;;;;;;0.13;0.13;;;;;;;29.56;53.00;101247.22;5036605;28;20120;-70
2023/08/12 10:53:33;;;;;;;0.25;0.25;;;;;;;29.48;53.17;101244.84;5016086;28;20034;-70
2023/08/12 10:55:59;;;;;;;0.50;0.32;;;;;;;29.86;53.28;101257.00;5035030;28;20087;-69
2023/08/12 10:58:34;;;;;;;0.10;0.10;;;;;;;30.19;52.86;101247.97;5017031;28;20121;-67
2023/08/12 11:01:00;;;;;;;0.45;0.40;;;;;;;30.23;52.73;101232.56;5035171;28;20051;-67
2023/08/12 11:03:25;;;;;;;0.60;0.50;;;;;;;30.25;53.15;101241.44;5033860;28;20592;-66
2023/08/12 11:06:03;;;;;;;0.40;0.40;;;;;;;30.20;52.84;101233.06;5035058;28;20080;-66
2023/08/12 11:08:29;;;;;;;0.40;0.40;;;;;;;30.16;53.12;101242.94;5032311;28;20040;-66
2023/08/12 11:13:59;;;;;;;0.50;0.50;;;;;;;30.16;53.20;101242.94;5011180;28;20571;-66
2023/08/12 11:16:37;;;;;;;0.30;0.20;;;;;;;30.21;52.78;101234.72;5036467;28;20025;-66
2023/08/12 11:19:03;;;;;;;0.57;0.43;;;;;;;30.22;52.74;101241.94;5053239;28;20052;-65